Terminal Aerodrome Forecast
Issued by NWS

Home | Current Version | Previous Version | Text Only | Print | Product List | Glossary On
Versions: 1 2 3 4 5 6 7 8 9 10 11 12 13 14 15 16 17 18 19 20 21
000
FTUS44 KTSA 220500
TAFBVO
TAF
KBVO 220520Z 2206/2306 00000KT P6SM SKC
     FM220900 00000KT 4SM BR FEW250
     FM221200 00000KT P6SM BKN250
     FM221800 16009KT P6SM SKC
     FM230000 14004KT P6SM BKN250=

USA.gov is the U.S. government's official web portal to all federal, state and local government web resources and services.